createdAt,value
2017-09-24T00:01:37.384Z,14.00
2017-09-24T00:04:03.677Z,14.00
2017-09-24T00:06:30.252Z,14.00
2017-09-24T00:08:56.543Z,14.00
2017-09-24T00:11:22.840Z,14.10
2017-09-24T00:13:49.149Z,14.00
2017-09-24T00:16:15.431Z,14.00
2017-09-24T00:18:42.093Z,14.00
2017-09-24T00:21:08.397Z,14.00
2017-09-24T00:23:35.081Z,14.00
2017-09-24T00:26:01.460Z,14.10
2017-09-24T00:28:28.188Z,13.80
2017-09-24T00:30:54.504Z,13.80
2017-09-24T00:33:20.866Z,13.60
2017-09-24T00:35:47.243Z,13.70
2017-09-24T00:38:13.545Z,13.80
2017-09-24T00:40:39.871Z,13.90
2017-09-24T00:43:06.177Z,14.00
2017-09-24T00:45:32.506Z,14.00
2017-09-24T00:47:58.825Z,14.00
2017-09-24T00:50:25.639Z,14.00
2017-09-24T00:52:51.955Z,13.90
2017-09-24T00:55:18.272Z,13.70
2017-09-24T00:57:44.598Z,13.90
2017-09-24T01:00:10.930Z,13.80
2017-09-24T01:02:37.245Z,13.90
2017-09-24T01:05:03.941Z,14.10
2017-09-24T01:07:30.300Z,14.10
2017-09-24T01:09:56.612Z,14.10
2017-09-24T01:12:22.944Z,14.20
2017-09-24T01:14:49.265Z,14.20
2017-09-24T01:17:15.627Z,14.20
2017-09-24T01:19:42.365Z,14.10
2017-09-24T01:22:09.074Z,14.00
2017-09-24T01:24:35.428Z,14.00
2017-09-24T01:27:01.771Z,14.00
2017-09-24T01:29:28.121Z,14.00
2017-09-24T01:32:01.227Z,14.00
2017-09-24T01:34:27.545Z,14.00
2017-09-24T01:36:53.841Z,13.90
2017-09-24T01:39:20.203Z,13.80
2017-09-24T01:41:46.549Z,13.80
2017-09-24T01:44:12.895Z,13.80
2017-09-24T01:46:39.245Z,13.80
2017-09-24T01:49:05.568Z,13.70
2017-09-24T01:51:31.919Z,13.70
2017-09-24T01:53:58.294Z,13.60
2017-09-24T01:56:24.623Z,13.50
2017-09-24T01:58:50.929Z,13.60
2017-09-24T02:01:17.280Z,13.50
2017-09-24T02:03:43.610Z,13.40
2017-09-24T02:06:09.890Z,13.50
2017-09-24T02:08:36.199Z,13.50
2017-09-24T02:11:02.483Z,13.50
2017-09-24T02:13:28.783Z,13.40
2017-09-24T02:15:55.054Z,13.20
2017-09-24T02:18:21.352Z,13.10
2017-09-24T02:20:47.673Z,13.10
2017-09-24T02:23:14.380Z,13.10
2017-09-24T02:25:40.645Z,13.10
2017-09-24T02:28:06.975Z,13.10
2017-09-24T02:30:33.288Z,13.10
2017-09-24T02:32:59.557Z,13.10
2017-09-24T02:35:25.848Z,13.00
2017-09-24T02:37:52.166Z,13.00
2017-09-24T02:40:18.447Z,13.00
2017-09-24T02:42:44.775Z,13.00
2017-09-24T02:45:11.457Z,13.00
2017-09-24T02:47:37.770Z,13.00
2017-09-24T02:50:04.054Z,13.00
2017-09-24T02:52:30.408Z,13.10
2017-09-24T02:54:56.753Z,13.10
2017-09-24T02:57:23.040Z,13.00
2017-09-24T02:59:49.348Z,13.00
2017-09-24T03:02:15.666Z,13.00
2017-09-24T03:04:41.948Z,12.90
2017-09-24T03:07:08.250Z,12.90
2017-09-24T03:09:34.560Z,12.90
2017-09-24T03:12:00.858Z,12.90
2017-09-24T03:14:27.131Z,12.80
2017-09-24T03:16:53.479Z,12.80
2017-09-24T03:19:19.759Z,12.80
2017-09-24T03:21:46.072Z,12.70
2017-09-24T03:24:12.356Z,12.60
2017-09-24T03:26:38.622Z,12.60
2017-09-24T03:29:04.915Z,12.50
2017-09-24T03:31:31.185Z,12.50
2017-09-24T03:33:57.471Z,12.50
2017-09-24T03:36:23.777Z,12.50
2017-09-24T03:38:50.069Z,12.40
2017-09-24T03:41:16.790Z,12.30
2017-09-24T03:43:43.344Z,12.30
2017-09-24T03:46:09.994Z,12.10
2017-09-24T03:48:36.285Z,12.10
2017-09-24T03:51:02.576Z,12.00
2017-09-24T03:53:28.861Z,12.00
2017-09-24T03:55:55.523Z,12.00
2017-09-24T03:58:21.784Z,12.00
2017-09-24T04:00:48.121Z,12.00
2017-09-24T04:03:21.450Z,12.00
2017-09-24T04:05:47.752Z,11.90
2017-09-24T04:08:14.050Z,11.90
2017-09-24T04:10:40.424Z,11.90
2017-09-24T04:13:06.717Z,11.90
2017-09-24T04:15:32.999Z,11.80
2017-09-24T04:17:59.299Z,11.80
2017-09-24T04:20:25.578Z,11.80
2017-09-24T04:22:51.854Z,11.80
2017-09-24T04:25:18.153Z,11.80
2017-09-24T04:27:44.447Z,11.80
2017-09-24T04:30:11.102Z,11.80
2017-09-24T04:32:37.762Z,11.80
2017-09-24T04:35:04.056Z,11.80
2017-09-24T04:37:30.332Z,11.70
2017-09-24T04:39:56.620Z,11.70
2017-09-24T04:42:23.301Z,11.70
2017-09-24T04:44:49.630Z,11.70
2017-09-24T04:47:15.908Z,11.60
2017-09-24T04:49:42.611Z,11.50
2017-09-24T04:52:08.898Z,11.50
2017-09-24T04:54:35.223Z,11.30
2017-09-24T04:57:01.878Z,11.40
2017-09-24T04:59:28.172Z,11.40
2017-09-24T05:01:54.488Z,11.40
2017-09-24T05:04:20.779Z,11.40
2017-09-24T05:06:47.052Z,11.40
2017-09-24T05:09:13.325Z,11.40
2017-09-24T05:11:39.608Z,11.40
2017-09-24T05:14:05.875Z,11.40
2017-09-24T05:16:32.189Z,11.40
2017-09-24T05:18:58.486Z,11.20
2017-09-24T05:21:24.777Z,11.20
2017-09-24T05:23:51.070Z,11.10
2017-09-24T05:26:17.746Z,11.00
2017-09-24T05:28:44.053Z,11.00
2017-09-24T05:31:10.366Z,11.00
2017-09-24T05:33:36.697Z,11.00
2017-09-24T05:36:03.389Z,11.10
2017-09-24T05:38:29.681Z,11.10
2017-09-24T05:40:56.361Z,11.00
2017-09-24T05:43:22.655Z,11.00
2017-09-24T05:45:49.016Z,10.80
2017-09-24T05:48:15.293Z,10.80
2017-09-24T05:50:41.974Z,11.00
2017-09-24T05:53:08.273Z,11.00
2017-09-24T05:55:34.930Z,11.10
2017-09-24T05:58:01.228Z,11.10
2017-09-24T06:00:27.926Z,11.20
2017-09-24T06:02:54.271Z,11.20
2017-09-24T06:05:20.561Z,11.30
2017-09-24T06:07:46.854Z,11.40
2017-09-24T06:10:13.641Z,11.50
2017-09-24T06:12:39.915Z,11.60
2017-09-24T06:15:06.205Z,11.70
2017-09-24T06:17:32.481Z,11.80
2017-09-24T06:19:58.838Z,11.70
2017-09-24T06:22:25.136Z,11.90
2017-09-24T06:24:51.459Z,11.90
2017-09-24T06:27:17.738Z,12.00
2017-09-24T06:29:44.033Z,12.00
2017-09-24T06:32:10.326Z,12.10
2017-09-24T06:34:36.670Z,12.20
2017-09-24T06:37:02.971Z,12.10
2017-09-24T06:39:29.280Z,12.30
2017-09-24T06:41:55.637Z,12.40
2017-09-24T06:44:28.797Z,12.50
2017-09-24T06:46:55.122Z,12.60
2017-09-24T06:49:21.464Z,12.80
2017-09-24T06:51:47.773Z,12.90
2017-09-24T06:54:14.085Z,12.90
2017-09-24T06:56:40.397Z,13.00
2017-09-24T06:59:06.697Z,13.20
2017-09-24T07:01:33.038Z,13.30
2017-09-24T07:03:59.390Z,13.40
2017-09-24T07:06:25.690Z,13.40
2017-09-24T07:08:52.006Z,13.50
2017-09-24T07:11:18.284Z,13.50
2017-09-24T07:13:44.589Z,13.60
2017-09-24T07:16:10.919Z,13.80
2017-09-24T07:18:37.669Z,13.90
2017-09-24T07:21:03.987Z,14.00
2017-09-24T07:23:30.295Z,14.10
2017-09-24T07:25:56.610Z,14.20
2017-09-24T07:28:22.910Z,14.20
2017-09-24T07:30:49.241Z,14.30
2017-09-24T07:33:15.524Z,14.40
2017-09-24T07:35:41.828Z,14.60
2017-09-24T07:38:08.544Z,14.90
2017-09-24T07:40:34.877Z,14.90
2017-09-24T07:43:01.343Z,14.90
2017-09-24T07:45:27.665Z,15.00
2017-09-24T07:48:06.281Z,15.10
2017-09-24T07:50:32.982Z,15.30
2017-09-24T07:52:59.291Z,15.30
2017-09-24T07:55:25.592Z,15.30
2017-09-24T07:57:51.878Z,15.40
2017-09-24T08:00:18.180Z,15.60
2017-09-24T08:02:44.507Z,15.70
2017-09-24T08:05:10.793Z,15.80
2017-09-24T08:07:37.097Z,15.80
2017-09-24T08:10:03.398Z,15.90
2017-09-24T08:12:39.725Z,16.00
2017-09-24T08:16:44.557Z,16.00
2017-09-24T08:19:12.489Z,16.20
2017-09-24T08:21:38.802Z,16.20
2017-09-24T08:24:05.109Z,16.30
2017-09-24T08:26:31.412Z,16.40
2017-09-24T08:28:57.738Z,16.40
2017-09-24T08:31:24.441Z,16.40
2017-09-24T08:33:50.782Z,16.40
2017-09-24T08:36:17.166Z,16.50
2017-09-24T08:38:43.501Z,16.70
2017-09-24T08:41:10.088Z,16.90
2017-09-24T08:43:36.399Z,17.20
2017-09-24T08:46:02.713Z,17.50
2017-09-24T08:48:29.041Z,18.00
2017-09-24T08:50:55.354Z,18.40
2017-09-24T08:53:21.676Z,18.50
2017-09-24T08:55:48.004Z,18.60
2017-09-24T08:58:14.351Z,18.70
2017-09-24T09:00:40.673Z,18.80
2017-09-24T09:03:07.002Z,18.70
2017-09-24T09:05:34.111Z,18.60
2017-09-24T09:08:00.450Z,18.70
2017-09-24T09:10:27.142Z,18.50
2017-09-24T09:12:53.484Z,18.60
2017-09-24T09:15:19.820Z,18.60
2017-09-24T09:17:46.112Z,18.50
2017-09-24T09:20:12.456Z,18.50
2017-09-24T09:22:38.769Z,18.60
2017-09-24T09:25:05.100Z,18.80
2017-09-24T09:27:31.421Z,18.50
2017-09-24T09:29:58.118Z,18.60
2017-09-24T09:32:25.634Z,18.60
2017-09-24T09:35:04.124Z,18.90
2017-09-24T09:37:30.779Z,19.10
2017-09-24T09:39:57.117Z,19.20
2017-09-24T09:42:36.958Z,19.30
2017-09-24T09:45:16.430Z,19.40
2017-09-24T09:47:44.846Z,19.50
2017-09-24T09:50:12.849Z,19.70
2017-09-24T09:52:39.929Z,19.90
2017-09-24T09:55:06.258Z,19.80
2017-09-24T09:57:32.573Z,20.00
2017-09-24T09:59:58.877Z,20.20
2017-09-24T10:02:25.652Z,20.60
2017-09-24T10:04:52.817Z,20.50
2017-09-24T10:10:16.148Z,20.80
2017-09-24T10:12:42.515Z,21.00
2017-09-24T10:15:08.897Z,21.30
2017-09-24T10:17:35.727Z,21.80
2017-09-24T10:20:03.318Z,22.70
2017-09-24T10:22:29.698Z,24.50
2017-09-24T10:24:56.007Z,26.70
2017-09-24T10:27:22.281Z,29.10
2017-09-24T10:30:01.293Z,32.40
2017-09-24T10:32:27.903Z,32.40
2017-09-24T10:34:57.898Z,34.10
2017-09-24T10:37:24.236Z,35.10
2017-09-24T10:39:57.450Z,36.30
2017-09-24T10:42:23.807Z,37.10
2017-09-24T10:44:50.138Z,38.30
2017-09-24T10:47:17.152Z,39.40
2017-09-24T10:49:43.489Z,40.90
2017-09-24T10:52:10.629Z,42.40
2017-09-24T10:54:36.969Z,43.50
2017-09-24T10:57:03.341Z,44.80
2017-09-24T10:59:29.700Z,45.30
2017-09-24T11:01:56.064Z,45.60
2017-09-24T11:04:22.394Z,46.80
2017-09-24T11:06:48.971Z,47.80
2017-09-24T11:09:15.665Z,47.40
2017-09-24T11:11:41.975Z,47.40
2017-09-24T11:14:09.926Z,48.10
2017-09-24T11:16:36.263Z,48.80
2017-09-24T11:19:03.070Z,47.50
2017-09-24T11:21:29.458Z,44.40
2017-09-24T11:23:55.834Z,44.30
2017-09-24T11:26:22.233Z,46.00
2017-09-24T11:28:49.164Z,47.00
2017-09-24T11:31:15.803Z,47.50
2017-09-24T11:33:42.537Z,47.70
2017-09-24T11:36:09.356Z,48.30
2017-09-24T11:38:35.671Z,49.20
2017-09-24T11:41:02.009Z,49.90
2017-09-24T11:43:29.165Z,49.90
2017-09-24T11:45:55.608Z,49.60
2017-09-24T11:48:21.937Z,49.20
2017-09-24T11:50:48.334Z,49.20
2017-09-24T11:53:15.112Z,48.40
2017-09-24T11:55:42.141Z,48.40
2017-09-24T11:58:08.485Z,48.40
2017-09-24T12:00:34.881Z,48.30
2017-09-24T12:03:01.260Z,49.00
2017-09-24T12:05:27.893Z,49.80
2017-09-24T12:07:55.096Z,50.60
2017-09-24T12:10:21.482Z,51.60
2017-09-24T12:12:47.888Z,52.20
2017-09-24T12:15:15.547Z,53.90
2017-09-24T12:17:42.915Z,54.10
2017-09-24T12:20:09.262Z,54.10
2017-09-24T12:22:36.597Z,54.40
2017-09-24T12:25:02.908Z,54.80
2017-09-24T12:27:29.583Z,55.60
2017-09-24T12:29:55.956Z,55.60
2017-09-24T12:32:22.876Z,54.40
2017-09-24T12:34:49.565Z,52.40
2017-09-24T12:37:15.955Z,51.20
2017-09-24T12:39:42.341Z,50.80
2017-09-24T12:42:09.650Z,48.30
2017-09-24T12:44:35.999Z,48.30
2017-09-24T12:47:02.379Z,44.90
2017-09-24T12:49:29.622Z,40.90
2017-09-24T12:51:55.969Z,38.10
2017-09-24T12:54:22.342Z,35.80
2017-09-24T12:56:50.023Z,32.50
2017-09-24T12:59:21.273Z,31.40
2017-09-24T13:01:49.700Z,31.50
2017-09-24T13:04:16.082Z,30.40
2017-09-24T13:06:43.021Z,28.50
2017-09-24T13:09:09.492Z,28.50
2017-09-24T13:11:39.919Z,27.80
2017-09-24T13:14:06.303Z,27.10
2017-09-24T13:16:32.744Z,26.60
2017-09-24T13:18:59.480Z,25.80
2017-09-24T13:21:28.134Z,25.80
2017-09-24T13:23:54.913Z,25.50
2017-09-24T13:26:21.608Z,25.40
2017-09-24T13:28:49.367Z,25.20
2017-09-24T13:31:15.901Z,25.00
2017-09-24T13:33:42.303Z,24.90
2017-09-24T13:36:09.319Z,24.70
2017-09-24T13:38:35.635Z,24.50
2017-09-24T13:41:01.992Z,24.30
2017-09-24T14:56:24.394Z,22.10
2017-09-24T14:58:51.058Z,21.80
2017-09-24T15:01:19.398Z,21.70
2017-09-24T15:03:47.569Z,21.60
2017-09-24T15:06:16.366Z,21.40
2017-09-24T15:08:43.409Z,21.30
2017-09-24T15:11:10.335Z,21.30
2017-09-24T15:13:38.543Z,21.20
2017-09-24T15:16:07.538Z,21.20
2017-09-24T15:18:39.709Z,21.20
2017-09-24T15:21:08.280Z,21.20
2017-09-24T15:23:37.484Z,21.20
2017-09-24T15:26:06.117Z,21.30
2017-09-24T15:28:33.918Z,21.30
2017-09-24T15:31:03.152Z,21.20
2017-09-24T15:33:31.750Z,21.10
2017-09-24T15:36:01.649Z,21.00
2017-09-24T15:38:30.118Z,20.80
2017-09-24T15:40:59.191Z,20.80
2017-09-24T15:43:27.043Z,20.70
2017-09-24T15:45:54.398Z,20.60
2017-09-24T15:48:22.571Z,20.60
2017-09-24T15:51:00.187Z,20.50
2017-09-24T15:53:29.322Z,20.40
2017-09-24T15:55:57.919Z,20.30
2017-09-24T15:58:24.624Z,20.20
2017-09-24T16:00:51.316Z,20.20
2017-09-24T16:03:19.446Z,20.20
2017-09-24T16:05:48.781Z,20.20
2017-09-24T16:08:16.540Z,20.10
2017-09-24T16:10:44.056Z,20.00
2017-09-24T16:13:13.374Z,20.00
2017-09-24T16:15:41.039Z,19.90
2017-09-24T16:18:08.309Z,19.80
2017-09-24T16:20:39.615Z,19.80
2017-09-24T16:23:10.203Z,19.70
2017-09-24T16:25:37.985Z,19.70
2017-09-24T16:28:07.775Z,19.70
2017-09-24T16:30:35.325Z,19.60
2017-09-24T16:33:03.173Z,19.60
2017-09-24T16:35:31.352Z,19.50
2017-09-24T16:38:00.505Z,19.50
2017-09-24T16:40:33.015Z,19.40
2017-09-24T16:43:01.887Z,19.30
2017-09-24T16:45:29.663Z,19.20
2017-09-24T16:50:29.182Z,19.10
2017-09-24T16:52:56.827Z,18.90
2017-09-24T16:55:23.817Z,19.00
2017-09-24T16:57:51.508Z,18.80
2017-09-24T17:00:18.357Z,18.80
2017-09-24T17:02:45.954Z,18.70
2017-09-24T17:05:13.327Z,18.60
2017-09-24T17:07:41.071Z,18.50
2017-09-24T17:10:08.016Z,18.50
2017-09-24T17:12:34.521Z,18.40
2017-09-24T17:15:04.649Z,18.30
2017-09-24T17:17:33.417Z,18.10
2017-09-24T17:20:03.245Z,18.10
2017-09-24T17:22:31.333Z,18.10
2017-09-24T17:24:59.705Z,17.90
2017-09-24T17:27:26.909Z,18.00
2017-09-24T17:29:53.588Z,18.00
2017-09-24T17:32:22.279Z,18.00
2017-09-24T17:34:50.364Z,18.10
2017-09-24T17:37:19.303Z,18.10
2017-09-24T17:39:48.758Z,18.10
2017-09-24T17:42:17.022Z,18.10
2017-09-24T17:44:46.408Z,18.00
2017-09-24T17:47:17.613Z,18.00
2017-09-24T17:49:46.603Z,17.90
2017-09-24T17:52:13.343Z,17.80
2017-09-24T17:54:40.375Z,17.80
2017-09-24T17:57:08.644Z,17.90
2017-09-24T17:59:37.349Z,17.90
2017-09-24T18:02:08.081Z,17.90
2017-09-24T18:04:34.466Z,17.80
2017-09-24T18:07:02.632Z,17.70
2017-09-24T18:09:30.586Z,17.60
2017-09-24T18:12:00.501Z,17.50
2017-09-24T18:14:28.533Z,17.40
2017-09-24T18:16:55.440Z,17.40
2017-09-24T18:19:24.282Z,17.40
2017-09-24T18:21:51.963Z,17.50
2017-09-24T18:24:20.991Z,17.40
2017-09-24T18:26:54.790Z,17.50
2017-09-24T18:29:23.517Z,17.40
2017-09-24T18:31:52.773Z,17.30
2017-09-24T18:34:20.714Z,17.20
2017-09-24T18:36:48.914Z,17.20
2017-09-24T18:39:18.683Z,17.10
2017-09-24T18:41:46.286Z,17.00
2017-09-24T18:44:15.033Z,17.00
2017-09-24T18:46:46.165Z,17.00
2017-09-24T18:49:13.471Z,16.80
2017-09-24T18:51:42.361Z,16.70
2017-09-24T18:54:13.190Z,16.80
2017-09-24T18:56:39.963Z,16.80
2017-09-24T18:59:07.956Z,16.80
2017-09-24T19:01:40.309Z,16.80
2017-09-24T19:04:09.160Z,16.80
2017-09-24T19:06:36.458Z,16.70
2017-09-24T19:09:05.205Z,16.70
2017-09-24T19:11:35.541Z,16.70
2017-09-24T19:14:02.806Z,16.70
2017-09-24T19:16:34.742Z,16.70
2017-09-24T19:19:05.203Z,16.70
2017-09-24T19:21:32.614Z,16.60
2017-09-24T19:24:03.673Z,16.60
2017-09-24T19:26:31.028Z,16.60
2017-09-24T19:28:58.807Z,16.60
2017-09-24T19:31:29.209Z,16.60
2017-09-24T19:33:58.144Z,16.50
2017-09-24T19:36:28.544Z,16.50
2017-09-24T19:39:00.514Z,16.50
2017-09-24T19:41:32.636Z,16.40
2017-09-24T19:43:59.947Z,16.40
2017-09-24T19:46:28.817Z,16.30
2017-09-24T19:48:56.584Z,16.30
2017-09-24T19:51:27.852Z,16.20
2017-09-24T19:53:54.797Z,16.20
2017-09-24T19:56:22.486Z,16.20
2017-09-24T19:58:52.264Z,16.10
2017-09-24T20:01:21.839Z,16.10
2017-09-24T20:03:52.804Z,16.00
2017-09-24T20:06:20.995Z,16.00
2017-09-24T20:08:49.851Z,16.00
2017-09-24T20:11:18.868Z,16.00
2017-09-24T20:13:45.279Z,16.00
2017-09-24T20:16:12.528Z,15.90
2017-09-24T20:18:40.470Z,15.80
2017-09-24T20:21:06.792Z,15.60
2017-09-24T20:23:38.842Z,15.60
2017-09-24T20:26:06.995Z,15.40
2017-09-24T20:28:36.199Z,15.40
2017-09-24T20:31:07.902Z,15.20
2017-09-24T20:33:38.363Z,15.10
2017-09-24T20:36:04.691Z,15.10
2017-09-24T20:38:31.006Z,15.10
2017-09-24T20:40:58.616Z,15.00
2017-09-24T20:43:28.183Z,15.00
2017-09-24T20:45:56.786Z,14.90
2017-09-24T20:48:26.065Z,14.90
2017-09-24T20:50:53.074Z,14.90
2017-09-24T20:53:22.246Z,14.90
2017-09-24T20:55:51.423Z,14.80
2017-09-24T20:58:18.381Z,14.80
2017-09-24T21:00:45.951Z,14.80
2017-09-24T21:03:15.592Z,14.70
2017-09-24T21:05:44.207Z,14.70
2017-09-24T21:08:16.107Z,14.60
2017-09-24T21:10:43.437Z,14.50
2017-09-24T21:13:11.105Z,14.40
2017-09-24T21:15:40.341Z,14.40
2017-09-24T21:18:08.153Z,14.30
2017-09-24T21:20:34.476Z,14.30
2017-09-24T21:23:02.538Z,14.20
2017-09-24T21:25:29.648Z,14.10
2017-09-24T21:27:58.736Z,14.10
2017-09-24T21:30:26.957Z,14.10
2017-09-24T21:32:55.210Z,14.10
2017-09-24T21:35:24.481Z,14.00
2017-09-24T21:37:52.129Z,14.00
2017-09-24T21:40:21.259Z,14.00
2017-09-24T21:42:50.678Z,13.90
2017-09-24T21:45:22.839Z,13.90
2017-09-24T21:47:52.507Z,13.90
2017-09-24T21:50:22.346Z,13.90
2017-09-24T21:52:52.489Z,13.80
2017-09-24T21:55:20.549Z,13.80
2017-09-24T21:57:51.443Z,13.80
2017-09-24T22:00:18.502Z,13.70
2017-09-24T22:02:52.188Z,13.70
2017-09-24T22:05:20.190Z,13.70
2017-09-24T22:07:50.647Z,13.70
2017-09-24T22:10:19.546Z,13.60
2017-09-24T22:12:47.229Z,13.60
2017-09-24T22:15:14.910Z,13.60
2017-09-24T22:17:41.609Z,13.50
2017-09-24T22:20:09.841Z,13.50
2017-09-24T22:22:37.089Z,13.40
2017-09-24T22:25:06.987Z,13.30
2017-09-24T22:27:35.513Z,13.30
2017-09-24T22:30:05.365Z,13.30
2017-09-24T22:32:35.435Z,13.20
2017-09-24T22:35:03.261Z,13.10
2017-09-24T22:37:35.535Z,13.10
2017-09-24T22:40:03.471Z,13.10
2017-09-24T22:42:32.519Z,13.00
2017-09-24T22:45:01.243Z,13.00
2017-09-24T22:47:27.930Z,12.90
2017-09-24T22:49:58.252Z,12.90
2017-09-24T22:52:26.765Z,12.80
2017-09-24T22:54:55.164Z,12.90
2017-09-24T22:57:22.424Z,12.80
2017-09-24T22:59:49.892Z,12.80
2017-09-24T23:02:18.016Z,12.60
2017-09-24T23:04:46.827Z,12.60
2017-09-24T23:07:15.538Z,12.60
2017-09-24T23:09:43.249Z,12.50
2017-09-24T23:12:09.543Z,12.50
2017-09-24T23:14:36.754Z,12.60
2017-09-24T23:17:04.718Z,12.60
2017-09-24T23:19:33.106Z,12.60
2017-09-24T23:22:00.855Z,12.50
2017-09-24T23:24:28.954Z,12.50
2017-09-24T23:26:57.062Z,12.50
2017-09-24T23:29:23.420Z,12.50
2017-09-24T23:31:51.703Z,12.40
2017-09-24T23:34:18.866Z,12.40
2017-09-24T23:36:47.082Z,12.30
2017-09-24T23:39:13.371Z,12.30
2017-09-24T23:41:39.683Z,12.20
2017-09-24T23:44:08.644Z,12.10
2017-09-24T23:46:35.182Z,11.90
2017-09-24T23:49:03.352Z,11.80
2017-09-24T23:51:31.724Z,11.80
2017-09-24T23:54:01.650Z,11.90
2017-09-24T23:56:31.167Z,12.00
2017-09-24T23:59:02.282Z,12.00
